createdAt,value
2023-05-20T00:01:03.808Z,13.99
2023-05-20T00:03:30.558Z,14.30
2023-05-20T00:05:57.375Z,14.09
2023-05-20T00:08:23.963Z,14.05
2023-05-20T00:10:50.995Z,13.98
2023-05-20T00:13:17.579Z,14.20
2023-05-20T00:15:44.258Z,13.66
2023-05-20T00:18:11.036Z,13.95
2023-05-20T00:20:37.840Z,13.64
2023-05-20T00:23:04.450Z,13.62
2023-05-20T00:25:32.671Z,13.79
2023-05-20T00:27:59.420Z,13.54
2023-05-20T00:30:26.636Z,13.68
2023-05-20T00:32:53.274Z,13.60
2023-05-20T00:35:20.052Z,13.79
2023-05-20T00:37:46.632Z,14.00
2023-05-20T00:40:15.776Z,13.85
2023-05-20T00:42:42.639Z,13.62
2023-05-20T00:45:09.592Z,13.49
2023-05-20T00:47:39.454Z,13.32
2023-05-20T00:50:07.648Z,13.65
2023-05-20T00:52:34.488Z,13.44
2023-05-20T00:55:01.269Z,13.46
2023-05-20T00:57:27.926Z,13.45
2023-05-20T00:59:54.630Z,13.56
2023-05-20T01:02:21.681Z,13.37
2023-05-20T01:04:48.679Z,13.27
2023-05-20T01:07:16.505Z,13.24
2023-05-20T01:09:43.405Z,13.36
2023-05-20T01:12:09.945Z,13.27
2023-05-20T01:14:38.053Z,13.51
2023-05-20T01:17:09.712Z,13.78
2023-05-20T01:19:45.975Z,13.84
2023-05-20T01:22:14.009Z,13.79
2023-05-20T01:24:48.521Z,13.45
2023-05-20T01:27:15.280Z,13.34
2023-05-20T01:29:42.633Z,13.50
2023-05-20T01:32:15.556Z,13.61
2023-05-20T01:34:42.702Z,13.80
2023-05-20T01:37:10.687Z,13.66
2023-05-20T01:39:41.697Z,13.92
2023-05-20T01:42:10.300Z,13.80
2023-05-20T01:44:37.422Z,13.72
2023-05-20T01:47:04.536Z,13.72
2023-05-20T01:49:31.364Z,13.80
2023-05-20T01:51:58.322Z,13.68
2023-05-20T01:54:25.062Z,13.33
2023-05-20T01:56:51.731Z,13.25
2023-05-20T02:02:00.213Z,13.20
2023-05-20T02:04:27.376Z,13.09
2023-05-20T02:06:54.094Z,13.06
2023-05-20T02:09:23.181Z,12.61
2023-05-20T02:11:52.146Z,12.69
2023-05-20T02:14:18.733Z,12.94
2023-05-20T02:16:46.513Z,12.92
2023-05-20T02:19:13.329Z,12.82
2023-05-20T02:21:41.989Z,12.68
2023-05-20T02:24:09.859Z,12.66
2023-05-20T02:26:36.601Z,12.37
2023-05-20T02:29:03.243Z,12.63
2023-05-20T02:31:29.964Z,12.54
2023-05-20T02:33:56.701Z,12.68
2023-05-20T02:36:23.399Z,12.57
2023-05-20T02:38:52.322Z,12.68
2023-05-20T02:41:18.959Z,12.53
2023-05-20T02:43:46.986Z,12.58
2023-05-20T02:46:13.679Z,12.42
2023-05-20T02:48:40.537Z,12.50
2023-05-20T02:51:07.305Z,12.56
2023-05-20T02:53:33.971Z,12.51
2023-05-20T02:56:01.628Z,12.44
2023-05-20T02:58:29.487Z,12.18
2023-05-20T03:00:57.799Z,12.40
2023-05-20T03:03:27.138Z,12.16
2023-05-20T03:05:53.977Z,12.23
2023-05-20T03:08:22.087Z,12.18
2023-05-20T03:10:49.118Z,12.29
2023-05-20T03:13:18.103Z,12.03
2023-05-20T03:15:45.705Z,12.18
2023-05-20T03:18:18.696Z,12.49
2023-05-20T03:20:46.365Z,12.24
2023-05-20T03:23:13.109Z,11.60
2023-05-20T03:25:41.406Z,11.98
2023-05-20T03:28:08.285Z,11.70
2023-05-20T03:30:37.051Z,11.79
2023-05-20T03:33:06.025Z,11.26
2023-05-20T03:35:35.338Z,11.51
2023-05-20T03:38:02.220Z,11.92
2023-05-20T03:40:29.698Z,11.59
2023-05-20T03:43:02.665Z,11.72
2023-05-20T03:45:29.980Z,11.72
2023-05-20T03:48:03.828Z,11.78
2023-05-20T03:50:32.954Z,11.79
2023-05-20T03:53:00.598Z,11.41
2023-05-20T03:55:30.021Z,12.21
2023-05-20T03:57:59.543Z,12.02
2023-05-20T04:00:26.475Z,12.06
2023-05-20T04:02:53.293Z,12.26
2023-05-20T04:05:21.287Z,12.56
2023-05-20T04:07:50.351Z,12.61
2023-05-20T04:10:19.503Z,12.43
2023-05-20T04:12:47.035Z,12.54
2023-05-20T04:15:14.796Z,12.28
2023-05-20T04:17:53.226Z,12.12
2023-05-20T04:20:20.135Z,12.23
2023-05-20T04:22:48.361Z,12.52
2023-05-20T04:25:15.230Z,11.97
2023-05-20T04:27:49.334Z,11.94
2023-05-20T04:30:20.642Z,12.44
2023-05-20T04:32:50.823Z,12.39
2023-05-20T04:35:17.974Z,12.45
2023-05-20T04:37:51.431Z,12.33
2023-05-20T04:40:19.171Z,12.23
2023-05-20T04:42:46.212Z,12.18
2023-05-20T04:45:13.727Z,12.64
2023-05-20T04:47:41.926Z,12.57
2023-05-20T04:50:12.306Z,12.60
2023-05-20T04:52:45.468Z,12.53
2023-05-20T04:55:12.440Z,12.89
2023-05-20T04:57:44.516Z,12.79
2023-05-20T05:00:12.703Z,12.99
2023-05-20T05:02:40.160Z,12.88
2023-05-20T05:05:07.304Z,13.24
2023-05-20T05:07:33.972Z,13.25
2023-05-20T05:10:01.291Z,13.00
2023-05-20T05:12:33.170Z,13.53
2023-05-20T05:14:59.993Z,13.67
2023-05-20T05:17:29.126Z,13.60
2023-05-20T05:19:57.412Z,13.47
2023-05-20T05:22:28.345Z,13.81
2023-05-20T05:24:56.016Z,13.68
2023-05-20T05:27:23.169Z,14.03
2023-05-20T05:29:50.099Z,13.75
2023-05-20T05:32:17.143Z,13.69
2023-05-20T05:34:43.930Z,14.20
2023-05-20T05:37:10.814Z,14.35
2023-05-20T05:39:37.864Z,14.59
2023-05-20T05:42:05.125Z,14.73
2023-05-20T05:44:34.518Z,14.41
2023-05-20T05:47:06.856Z,14.63
2023-05-20T05:49:34.341Z,13.83
2023-05-20T05:52:01.105Z,14.33
2023-05-20T05:54:28.630Z,14.25
2023-05-20T05:56:59.258Z,14.28
2023-05-20T05:59:28.410Z,14.13
2023-05-20T06:01:55.284Z,14.16
2023-05-20T06:04:25.214Z,14.15
2023-05-20T06:06:54.965Z,14.70
2023-05-20T06:09:27.866Z,14.77
2023-05-20T06:11:55.121Z,14.95
2023-05-20T06:14:24.823Z,14.81
2023-05-20T06:16:51.524Z,14.42
2023-05-20T06:19:21.223Z,14.76
2023-05-20T06:21:48.021Z,14.41
2023-05-20T06:24:17.896Z,14.68
2023-05-20T06:26:46.152Z,14.72
2023-05-20T06:29:12.791Z,14.89
2023-05-20T06:31:39.463Z,15.31
2023-05-20T06:34:06.418Z,15.56
2023-05-20T06:36:33.883Z,15.57
2023-05-20T06:39:00.699Z,15.70
2023-05-20T06:41:27.454Z,15.70
2023-05-20T06:43:54.144Z,15.93
2023-05-20T06:46:46.333Z,15.81
2023-05-20T06:49:15.440Z,15.82
2023-05-20T06:51:42.547Z,15.92
2023-05-20T06:54:09.209Z,15.78
2023-05-20T06:56:35.847Z,16.03
2023-05-20T06:59:03.032Z,16.29
2023-05-20T07:01:32.282Z,16.37
2023-05-20T07:03:59.135Z,16.47
2023-05-20T07:06:25.903Z,16.62
2023-05-20T07:08:55.781Z,16.21
2023-05-20T07:11:24.847Z,16.62
2023-05-20T07:13:51.466Z,16.59
2023-05-20T07:16:18.308Z,16.60
2023-05-20T07:18:50.604Z,16.38
2023-05-20T07:21:18.029Z,16.42
2023-05-20T07:23:58.643Z,16.18
2023-05-20T07:26:25.460Z,15.95
2023-05-20T07:28:52.331Z,16.01
2023-05-20T07:31:19.211Z,16.42
2023-05-20T07:33:46.002Z,16.64
2023-05-20T07:36:13.733Z,16.61
2023-05-20T07:38:49.968Z,16.40
2023-05-20T07:41:23.988Z,16.54
2023-05-20T07:43:50.866Z,16.88
2023-05-20T07:46:20.091Z,16.66
2023-05-20T07:48:50.290Z,16.85
2023-05-20T07:51:17.169Z,17.03
2023-05-20T07:53:43.743Z,16.56
2023-05-20T07:56:10.747Z,16.73
2023-05-20T07:58:38.105Z,17.02
2023-05-20T08:01:05.153Z,16.86
2023-05-20T08:03:31.875Z,16.90
2023-05-20T08:06:11.993Z,17.28
2023-05-20T08:08:43.499Z,17.10
2023-05-20T08:11:18.058Z,17.35
2023-05-20T08:13:44.900Z,17.28
2023-05-20T08:16:11.849Z,17.49
2023-05-20T08:18:38.959Z,17.18
2023-05-20T08:21:08.032Z,17.41
2023-05-20T08:23:38.054Z,17.32
2023-05-20T08:26:07.111Z,17.61
2023-05-20T08:28:37.949Z,17.53
2023-05-20T08:31:04.751Z,17.67
2023-05-20T08:33:43.978Z,17.62
2023-05-20T08:36:10.713Z,17.63
2023-05-20T08:38:37.409Z,17.61
2023-05-20T08:41:04.240Z,17.24
2023-05-20T08:43:32.727Z,17.63
2023-05-20T08:46:02.496Z,17.77
2023-05-20T08:48:30.684Z,18.09
2023-05-20T08:51:00.114Z,18.05
2023-05-20T08:53:26.842Z,17.99
2023-05-20T08:55:55.585Z,17.78
2023-05-20T08:58:23.433Z,17.72
2023-05-20T09:00:51.230Z,17.71
2023-05-20T09:03:18.631Z,17.76
2023-05-20T09:05:45.211Z,17.84
2023-05-20T09:08:12.159Z,17.79
2023-05-20T09:10:40.151Z,17.37
2023-05-20T09:13:07.460Z,17.41
2023-05-20T09:15:42.257Z,17.85
2023-05-20T09:18:09.345Z,17.85
2023-05-20T09:20:37.494Z,17.51
2023-05-20T09:23:06.436Z,17.35
2023-05-20T09:25:33.357Z,17.08
2023-05-20T09:28:00.331Z,17.23
2023-05-20T09:30:27.680Z,17.29
2023-05-20T09:32:55.329Z,17.43
2023-05-20T09:35:23.684Z,17.50
2023-05-20T09:37:55.040Z,17.64
2023-05-20T09:40:25.095Z,17.62
2023-05-20T09:42:56.811Z,17.67
2023-05-20T09:45:24.621Z,17.68
2023-05-20T09:47:52.680Z,17.78
2023-05-20T09:50:26.297Z,17.64
2023-05-20T09:52:53.452Z,17.57
2023-05-20T09:55:21.034Z,18.02
2023-05-20T09:57:47.711Z,17.49
2023-05-20T10:00:17.279Z,17.34
2023-05-20T10:02:45.144Z,17.51
2023-05-20T10:05:19.722Z,17.49
2023-05-20T10:07:52.568Z,17.64
2023-05-20T10:10:37.876Z,17.73
2023-05-20T10:13:07.293Z,17.85
2023-05-20T10:15:51.810Z,17.97
2023-05-20T10:18:47.700Z,18.20
2023-05-20T10:21:18.463Z,18.15
2023-05-20T10:23:45.124Z,17.65
2023-05-20T10:26:11.814Z,17.90
2023-05-20T10:28:40.361Z,17.88
2023-05-20T10:31:21.541Z,17.82
2023-05-20T10:33:48.694Z,17.82
2023-05-20T10:36:28.477Z,17.76
2023-05-20T10:38:59.219Z,17.59
2023-05-20T10:41:27.716Z,17.74
2023-05-20T10:44:06.786Z,17.60
2023-05-20T10:46:46.283Z,17.72
2023-05-20T10:49:27.117Z,17.86
2023-05-20T10:51:54.380Z,18.18
2023-05-20T10:54:23.798Z,18.04
2023-05-20T10:56:51.956Z,18.27
2023-05-20T10:59:18.607Z,18.09
2023-05-20T11:01:46.526Z,18.07
2023-05-20T11:04:17.438Z,17.66
2023-05-20T11:06:54.329Z,17.90
2023-05-20T11:09:24.552Z,18.22
2023-05-20T11:11:51.892Z,18.02
2023-05-20T11:14:21.739Z,18.27
2023-05-20T11:16:52.314Z,18.65
2023-05-20T11:19:21.961Z,18.68
2023-05-20T11:21:48.682Z,18.04
2023-05-20T11:24:22.313Z,18.15
2023-05-20T11:26:49.012Z,18.39
2023-05-20T11:29:19.968Z,18.59
2023-05-20T11:31:48.017Z,18.73
2023-05-20T11:34:14.710Z,18.56
2023-05-20T11:36:42.136Z,18.04
2023-05-20T11:39:10.115Z,18.06
2023-05-20T11:41:36.878Z,18.08
2023-05-20T11:44:03.475Z,18.54
2023-05-20T11:46:30.153Z,17.98
2023-05-20T11:48:57.346Z,17.94
2023-05-20T11:51:25.097Z,17.99
2023-05-20T11:53:51.649Z,18.02
2023-05-20T11:56:21.961Z,18.26
2023-05-20T11:58:48.973Z,18.41
2023-05-20T12:01:22.462Z,18.16
2023-05-20T12:03:50.323Z,18.16
2023-05-20T12:06:17.781Z,18.35
2023-05-20T12:08:47.700Z,18.52
2023-05-20T12:11:14.346Z,18.78
2023-05-20T12:13:41.140Z,19.10
2023-05-20T12:16:15.396Z,19.05
2023-05-20T12:18:47.451Z,19.46
2023-05-20T12:21:16.993Z,19.23
2023-05-20T12:23:44.793Z,19.38
2023-05-20T12:26:11.477Z,19.22
2023-05-20T12:28:38.066Z,18.45
2023-05-20T12:31:07.036Z,18.62
2023-05-20T12:33:33.678Z,18.57
2023-05-20T12:36:00.572Z,18.84
2023-05-20T12:38:27.259Z,19.13
2023-05-20T12:40:56.127Z,19.60
2023-05-20T12:43:25.880Z,20.01
2023-05-20T12:45:52.459Z,19.65
2023-05-20T12:48:19.234Z,19.46
2023-05-20T12:50:48.606Z,19.55
2023-05-20T12:53:15.333Z,19.95
2023-05-20T12:55:41.906Z,19.59
2023-05-20T12:58:09.014Z,19.52
2023-05-20T13:00:36.257Z,19.64
2023-05-20T13:03:03.172Z,19.77
2023-05-20T13:05:30.051Z,20.51
2023-05-20T13:07:56.704Z,20.97
2023-05-20T13:10:23.478Z,20.64
2023-05-20T13:12:50.179Z,20.11
2023-05-20T13:15:16.882Z,19.62
2023-05-20T13:17:43.715Z,19.27
2023-05-20T13:20:11.083Z,19.35
2023-05-20T13:22:38.159Z,20.37
2023-05-20T13:25:05.432Z,21.34
2023-05-20T13:27:32.138Z,21.93
2023-05-20T13:29:58.768Z,22.76
2023-05-20T13:32:25.501Z,22.32
2023-05-20T13:34:52.090Z,22.41
2023-05-20T13:37:19.356Z,21.78
2023-05-20T13:39:45.902Z,22.26
2023-05-20T13:42:12.724Z,21.97
2023-05-20T13:44:39.383Z,21.28
2023-05-20T13:47:06.095Z,20.73
2023-05-20T13:49:32.699Z,20.48
2023-05-20T13:52:01.553Z,20.80
2023-05-20T13:54:28.118Z,21.36
2023-05-20T13:56:54.975Z,21.77
2023-05-20T13:59:21.537Z,21.90
2023-05-20T14:01:48.321Z,20.93
2023-05-20T14:04:14.949Z,20.49
2023-05-20T14:06:42.389Z,19.72
2023-05-20T14:09:09.366Z,19.99
2023-05-20T14:11:36.309Z,20.86
2023-05-20T14:14:02.912Z,21.38
2023-05-20T14:16:29.618Z,22.13
2023-05-20T14:18:56.212Z,22.28
2023-05-20T14:21:22.848Z,23.29
2023-05-20T14:23:49.624Z,22.89
2023-05-20T14:26:16.294Z,22.79
2023-05-20T14:28:42.944Z,22.03
2023-05-20T14:31:10.800Z,22.47
2023-05-20T14:33:37.453Z,22.33
2023-05-20T14:36:06.657Z,21.68
2023-05-20T14:38:33.224Z,21.81
2023-05-20T14:40:59.881Z,21.93
2023-05-20T14:43:26.490Z,21.13
2023-05-20T14:45:53.170Z,21.23
2023-05-20T14:48:22.848Z,21.60
2023-05-20T14:50:49.939Z,21.77
2023-05-20T14:53:17.020Z,22.17
2023-05-20T14:55:43.660Z,22.31
2023-05-20T14:58:10.515Z,21.83
2023-05-20T15:00:39.593Z,22.17
2023-05-20T15:03:06.645Z,22.30
2023-05-20T15:05:33.618Z,22.09
2023-05-20T15:08:00.285Z,21.87
2023-05-20T15:10:27.029Z,21.46
2023-05-20T15:12:53.697Z,20.82
2023-05-20T15:15:21.242Z,21.14
2023-05-20T15:17:47.899Z,21.25
2023-05-20T15:20:14.605Z,21.09
2023-05-20T15:22:41.780Z,22.06
2023-05-20T15:25:09.531Z,22.01
2023-05-20T15:27:36.213Z,22.20
2023-05-20T15:30:03.017Z,21.22
2023-05-20T15:32:29.736Z,21.25
2023-05-20T15:34:59.818Z,21.25
2023-05-20T15:37:26.604Z,20.97
2023-05-20T15:39:55.536Z,21.29
2023-05-20T15:42:22.214Z,21.56
2023-05-20T15:44:52.031Z,21.82
2023-05-20T15:47:18.776Z,22.01
2023-05-20T15:49:47.633Z,22.01
2023-05-20T15:52:14.328Z,22.01
2023-05-20T15:54:41.129Z,22.22
2023-05-20T15:57:07.770Z,22.66
2023-05-20T15:59:34.359Z,22.90
2023-05-20T16:02:01.042Z,22.52
2023-05-20T16:04:33.114Z,21.93
2023-05-20T16:06:59.948Z,22.03
2023-05-20T16:09:32.567Z,22.02
2023-05-20T16:11:59.196Z,21.02
2023-05-20T16:14:28.805Z,21.09
2023-05-20T16:16:55.513Z,20.90
2023-05-20T16:19:22.177Z,21.33
2023-05-20T16:21:51.249Z,21.62
2023-05-20T16:24:17.825Z,21.37
2023-05-20T16:26:44.564Z,21.78
2023-05-20T16:29:11.353Z,21.90
2023-05-20T16:31:38.091Z,20.78
2023-05-20T16:34:04.797Z,20.65
2023-05-20T16:36:31.852Z,21.29
2023-05-20T16:38:58.463Z,21.27
2023-05-20T16:41:25.173Z,20.99
2023-05-20T16:43:51.774Z,21.31
2023-05-20T16:46:20.923Z,22.01
2023-05-20T16:48:50.775Z,22.16
2023-05-20T16:51:17.427Z,22.29
2023-05-20T16:53:46.764Z,21.98
2023-05-20T16:56:15.952Z,21.66
2023-05-20T16:58:42.650Z,21.47
2023-05-20T17:01:09.332Z,21.02
2023-05-20T17:03:36.373Z,20.94
2023-05-20T17:06:02.934Z,21.24
2023-05-20T17:08:32.410Z,20.74
2023-05-20T17:10:59.600Z,20.66
2023-05-20T17:13:26.244Z,21.05
2023-05-20T17:15:52.917Z,21.14
2023-05-20T17:18:19.643Z,20.96
2023-05-20T17:20:46.464Z,20.66
2023-05-20T17:23:14.865Z,20.72
2023-05-20T17:25:41.450Z,20.42
2023-05-20T17:28:08.121Z,20.39
2023-05-20T17:30:34.972Z,20.01
2023-05-20T17:33:04.274Z,20.67
2023-05-20T17:35:33.973Z,20.42
2023-05-20T17:38:00.815Z,20.22
2023-05-20T17:40:27.401Z,20.34
2023-05-20T17:42:54.079Z,20.01
2023-05-20T17:45:20.760Z,19.96
2023-05-20T17:47:47.492Z,19.82
2023-05-20T17:50:15.383Z,19.60
2023-05-20T17:52:42.110Z,19.30
2023-05-20T17:55:09.703Z,19.44
2023-05-20T17:57:36.689Z,19.35
2023-05-20T18:00:03.973Z,19.72
2023-05-20T18:02:31.921Z,19.70
2023-05-20T18:04:58.690Z,19.75
2023-05-20T18:07:27.024Z,19.57
2023-05-20T18:09:53.692Z,19.35
2023-05-20T18:12:20.519Z,19.08
2023-05-20T18:14:47.116Z,19.12
2023-05-20T18:17:13.830Z,19.22
2023-05-20T18:19:43.433Z,19.08
2023-05-20T18:22:10.211Z,19.08
2023-05-20T18:24:39.848Z,19.13
2023-05-20T18:27:06.567Z,19.41
2023-05-20T18:29:33.140Z,19.29
2023-05-20T18:32:01.402Z,19.10
2023-05-20T18:34:37.019Z,19.14
2023-05-20T18:37:03.993Z,19.23
2023-05-20T18:39:37.730Z,19.14
2023-05-20T18:42:59.043Z,18.80
2023-05-20T18:45:26.004Z,18.59
2023-05-20T18:47:55.332Z,18.94
2023-05-20T18:50:22.040Z,18.97
2023-05-20T18:52:48.820Z,19.18
2023-05-20T18:55:15.578Z,18.86
2023-05-20T18:57:42.278Z,18.88
2023-05-20T19:00:12.300Z,18.74
2023-05-20T19:02:40.268Z,18.72
2023-05-20T19:05:09.162Z,18.60
2023-05-20T19:07:45.958Z,18.78
2023-05-20T19:10:15.509Z,18.82
2023-05-20T19:12:43.597Z,18.73
2023-05-20T19:15:10.561Z,19.04
2023-05-20T19:17:39.477Z,18.60
2023-05-20T19:20:07.431Z,18.29
2023-05-20T19:22:34.396Z,18.46
2023-05-20T19:25:01.100Z,18.37
2023-05-20T19:27:27.753Z,18.50
2023-05-20T19:29:54.420Z,18.31
2023-05-20T19:32:21.049Z,18.29
2023-05-20T19:34:49.902Z,18.09
2023-05-20T19:37:16.953Z,18.43
2023-05-20T19:39:43.678Z,18.23
2023-05-20T19:42:10.367Z,18.03
2023-05-20T19:44:37.098Z,18.17
2023-05-20T19:47:05.662Z,18.38
2023-05-20T19:49:33.088Z,18.32
2023-05-20T19:51:59.708Z,17.98
2023-05-20T19:54:26.911Z,18.17
2023-05-20T19:56:53.525Z,18.08
2023-05-20T19:59:20.272Z,18.22
2023-05-20T20:01:48.050Z,18.23
2023-05-20T20:04:17.200Z,17.90
2023-05-20T20:06:44.040Z,17.83
2023-05-20T20:09:10.741Z,17.93
2023-05-20T20:11:37.419Z,17.81
2023-05-20T20:14:04.135Z,17.83
2023-05-20T20:16:30.909Z,18.26
2023-05-20T20:18:57.646Z,18.34
2023-05-20T20:21:25.791Z,18.29
2023-05-20T20:23:53.127Z,18.06
2023-05-20T20:26:22.698Z,17.80
2023-05-20T20:28:49.298Z,17.97
2023-05-20T20:31:15.995Z,18.00
2023-05-20T20:33:42.670Z,17.86
2023-05-20T20:36:09.871Z,18.00
2023-05-20T20:38:37.615Z,17.67
2023-05-20T20:41:04.214Z,17.73
2023-05-20T20:43:30.924Z,17.66
2023-05-20T20:46:00.075Z,17.77
2023-05-20T20:48:27.993Z,17.75
2023-05-20T20:50:54.866Z,17.65
2023-05-20T20:53:21.804Z,17.47
2023-05-20T20:55:48.473Z,17.61
2023-05-20T20:58:16.050Z,17.47
2023-05-20T21:00:45.399Z,17.39
2023-05-20T21:03:12.818Z,17.32
2023-05-20T21:05:39.709Z,17.39
2023-05-20T21:08:08.362Z,17.18
2023-05-20T21:10:38.743Z,17.41
2023-05-20T21:13:05.511Z,17.36
2023-05-20T21:15:32.098Z,17.42
2023-05-20T21:17:58.941Z,17.33
2023-05-20T21:20:25.612Z,17.06
2023-05-20T21:22:52.362Z,17.22
2023-05-20T21:25:18.962Z,17.15
2023-05-20T21:27:46.066Z,17.02
2023-05-20T21:30:12.699Z,17.06
2023-05-20T21:32:39.457Z,16.85
2023-05-20T21:35:06.416Z,17.27
2023-05-20T21:37:33.176Z,17.27
2023-05-20T21:39:59.742Z,17.21
2023-05-20T21:42:26.460Z,17.35
2023-05-20T21:44:53.047Z,17.31
2023-05-20T21:47:20.755Z,17.41
2023-05-20T21:49:48.300Z,17.23
2023-05-20T21:52:15.812Z,16.97
2023-05-20T21:54:44.777Z,17.15
2023-05-20T21:57:11.405Z,16.77
2023-05-20T21:59:40.527Z,16.59
2023-05-20T22:02:07.253Z,16.73
2023-05-20T22:04:33.905Z,16.90
2023-05-20T22:07:00.851Z,16.87
2023-05-20T22:09:27.429Z,17.03
2023-05-20T22:11:54.542Z,17.03
2023-05-20T22:14:21.126Z,17.02
2023-05-20T22:16:48.573Z,17.11
2023-05-20T22:19:15.873Z,17.08
2023-05-20T22:24:14.848Z,16.83
2023-05-20T22:26:41.746Z,16.82
2023-05-20T22:29:08.416Z,16.70
2023-05-20T22:31:35.091Z,16.40
2023-05-20T22:34:02.280Z,16.29
2023-05-20T22:36:34.129Z,16.14
2023-05-20T22:39:02.238Z,16.10
2023-05-20T22:41:29.132Z,16.07
2023-05-20T22:43:56.874Z,15.93
2023-05-20T22:46:24.238Z,16.06
2023-05-20T22:48:54.572Z,15.75
2023-05-20T22:51:21.958Z,15.68
2023-05-20T22:53:51.998Z,15.69
2023-05-20T22:56:19.169Z,15.07
2023-05-20T22:58:45.915Z,15.24
2023-05-20T23:01:12.926Z,14.90
2023-05-20T23:03:44.233Z,15.03
2023-05-20T23:06:11.646Z,15.30
2023-05-20T23:08:38.252Z,15.27
2023-05-20T23:11:04.991Z,15.21
2023-05-20T23:13:39.737Z,15.32
2023-05-20T23:16:07.723Z,14.62
2023-05-20T23:18:34.305Z,14.56
2023-05-20T23:21:01.049Z,14.65
2023-05-20T23:23:32.015Z,14.86
2023-05-20T23:25:59.501Z,14.94
2023-05-20T23:28:26.313Z,14.81
2023-05-20T23:30:53.048Z,14.66
2023-05-20T23:33:24.765Z,14.44
2023-05-20T23:35:52.337Z,14.33
2023-05-20T23:38:26.247Z,14.38
2023-05-20T23:40:52.864Z,14.35
2023-05-20T23:43:19.495Z,14.15
2023-05-20T23:45:46.741Z,14.58
2023-05-20T23:48:13.681Z,14.52
2023-05-20T23:50:43.473Z,14.73
2023-05-20T23:53:17.390Z,14.87
2023-05-20T23:55:45.213Z,15.29
2023-05-20T23:58:11.948Z,15.48
